sensor_id;sensor_type;location;lat;lon;timestamp;P1;durP1;ratioP1;P2;durP2;ratioP2
41141;SDS011;63666;52.284;20.890;2023-04-10T00:01:42;6.60;;;5.50;;
41141;SDS011;63666;52.284;20.890;2023-04-10T00:04:16;6.70;;;5.20;;
41141;SDS011;63666;52.284;20.890;2023-04-10T00:06:54;7.10;;;5.40;;
41141;SDS011;63666;52.284;20.890;2023-04-10T00:09:29;7.10;;;5.60;;
41141;SDS011;63666;52.284;20.890;2023-04-10T00:12:06;7.10;;;5.80;;
41141;SDS011;63666;52.284;20.890;2023-04-10T00:14:42;6.90;;;5.60;;
41141;SDS011;63666;52.284;20.890;2023-04-10T00:17:17;7.30;;;5.80;;
41141;SDS011;63666;52.284;20.890;2023-04-10T00:19:54;7.00;;;5.70;;
41141;SDS011;63666;52.284;20.890;2023-04-10T00:22:30;7.10;;;5.70;;
41141;SDS011;63666;52.284;20.890;2023-04-10T00:25:05;7.00;;;5.70;;
41141;SDS011;63666;52.284;20.890;2023-04-10T00:27:42;7.30;;;5.80;;
41141;SDS011;63666;52.284;20.890;2023-04-10T00:30:16;6.80;;;5.80;;
41141;SDS011;63666;52.284;20.890;2023-04-10T00:32:51;6.70;;;5.60;;
41141;SDS011;63666;52.284;20.890;2023-04-10T00:35:30;7.00;;;5.80;;
41141;SDS011;63666;52.284;20.890;2023-04-10T00:38:07;6.80;;;5.70;;
41141;SDS011;63666;52.284;20.890;2023-04-10T00:40:42;7.10;;;6.00;;
41141;SDS011;63666;52.284;20.890;2023-04-10T00:43:18;6.90;;;5.90;;
41141;SDS011;63666;52.284;20.890;2023-04-10T00:45:55;7.40;;;5.90;;
41141;SDS011;63666;52.284;20.890;2023-04-10T00:48:31;7.20;;;6.00;;
41141;SDS011;63666;52.284;20.890;2023-04-10T00:51:08;7.00;;;5.70;;
41141;SDS011;63666;52.284;20.890;2023-04-10T00:53:44;7.20;;;6.00;;
41141;SDS011;63666;52.284;20.890;2023-04-10T00:56:25;6.60;;;5.80;;
41141;SDS011;63666;52.284;20.890;2023-04-10T00:59:01;7.70;;;6.00;;
41141;SDS011;63666;52.284;20.890;2023-04-10T01:01:38;6.90;;;5.80;;
41141;SDS011;63666;52.284;20.890;2023-04-10T01:04:14;7.60;;;5.80;;
41141;SDS011;63666;52.284;20.890;2023-04-10T01:07:01;7.70;;;6.20;;
41141;SDS011;63666;52.284;20.890;2023-04-10T01:09:46;7.30;;;6.30;;
41141;SDS011;63666;52.284;20.890;2023-04-10T01:12:41;7.70;;;6.20;;
41141;SDS011;63666;52.284;20.890;2023-04-10T01:15:26;7.20;;;5.90;;
41141;SDS011;63666;52.284;20.890;2023-04-10T01:18:08;7.40;;;5.90;;
41141;SDS011;63666;52.284;20.890;2023-04-10T01:20:47;7.70;;;6.20;;
41141;SDS011;63666;52.284;20.890;2023-04-10T01:23:39;8.20;;;6.60;;
41141;SDS011;63666;52.284;20.890;2023-04-10T01:26:41;7.50;;;6.20;;
41141;SDS011;63666;52.284;20.890;2023-04-10T01:29:30;8.10;;;6.30;;
41141;SDS011;63666;52.284;20.890;2023-04-10T01:32:12;8.10;;;6.80;;
41141;SDS011;63666;52.284;20.890;2023-04-10T01:34:51;8.50;;;6.60;;
41141;SDS011;63666;52.284;20.890;2023-04-10T01:37:29;7.80;;;6.80;;
41141;SDS011;63666;52.284;20.890;2023-04-10T01:40:07;8.70;;;6.80;;
41141;SDS011;63666;52.284;20.890;2023-04-10T01:42:46;7.70;;;6.80;;
41141;SDS011;63666;52.284;20.890;2023-04-10T01:45:27;8.40;;;6.80;;
41141;SDS011;63666;52.284;20.890;2023-04-10T01:48:05;8.10;;;6.80;;
41141;SDS011;63666;52.284;20.890;2023-04-10T01:50:41;7.80;;;6.70;;
41141;SDS011;63666;52.284;20.890;2023-04-10T01:53:17;7.80;;;6.70;;
41141;SDS011;63666;52.284;20.890;2023-04-10T01:55:53;8.80;;;6.80;;
41141;SDS011;63666;52.284;20.890;2023-04-10T01:58:29;7.90;;;6.70;;
41141;SDS011;63666;52.284;20.890;2023-04-10T02:01:04;8.40;;;6.70;;
41141;SDS011;63666;52.284;20.890;2023-04-10T02:03:57;7.90;;;7.00;;
41141;SDS011;63666;52.284;20.890;2023-04-10T02:06:39;8.30;;;6.90;;
41141;SDS011;63666;52.284;20.890;2023-04-10T02:09:20;8.30;;;6.90;;
41141;SDS011;63666;52.284;20.890;2023-04-10T02:12:00;8.20;;;6.70;;
41141;SDS011;63666;52.284;20.890;2023-04-10T02:14:40;8.50;;;6.90;;
41141;SDS011;63666;52.284;20.890;2023-04-10T02:17:22;8.30;;;6.80;;
41141;SDS011;63666;52.284;20.890;2023-04-10T02:20:02;8.30;;;7.10;;
41141;SDS011;63666;52.284;20.890;2023-04-10T02:22:42;8.60;;;6.70;;
41141;SDS011;63666;52.284;20.890;2023-04-10T02:25:21;8.30;;;7.00;;
41141;SDS011;63666;52.284;20.890;2023-04-10T02:27:55;8.10;;;7.10;;
41141;SDS011;63666;52.284;20.890;2023-04-10T02:30:30;8.10;;;6.80;;
41141;SDS011;63666;52.284;20.890;2023-04-10T02:33:06;8.10;;;7.00;;
41141;SDS011;63666;52.284;20.890;2023-04-10T02:35:41;8.10;;;6.80;;
41141;SDS011;63666;52.284;20.890;2023-04-10T02:38:16;8.20;;;6.90;;
41141;SDS011;63666;52.284;20.890;2023-04-10T02:40:53;7.60;;;6.80;;
41141;SDS011;63666;52.284;20.890;2023-04-10T02:43:28;8.30;;;7.30;;
41141;SDS011;63666;52.284;20.890;2023-04-10T02:46:06;8.30;;;7.30;;
41141;SDS011;63666;52.284;20.890;2023-04-10T02:48:40;8.90;;;7.00;;
41141;SDS011;63666;52.284;20.890;2023-04-10T02:51:14;8.60;;;6.90;;
41141;SDS011;63666;52.284;20.890;2023-04-10T02:53:49;8.00;;;6.80;;
41141;SDS011;63666;52.284;20.890;2023-04-10T02:56:24;8.50;;;7.00;;
41141;SDS011;63666;52.284;20.890;2023-04-10T02:58:57;7.90;;;6.40;;
41141;SDS011;63666;52.284;20.890;2023-04-10T03:01:33;8.30;;;6.90;;
41141;SDS011;63666;52.284;20.890;2023-04-10T03:04:11;8.50;;;7.10;;
41141;SDS011;63666;52.284;20.890;2023-04-10T03:06:46;8.40;;;7.10;;
41141;SDS011;63666;52.284;20.890;2023-04-10T03:09:22;8.50;;;6.90;;
41141;SDS011;63666;52.284;20.890;2023-04-10T03:11:56;8.60;;;6.90;;
41141;SDS011;63666;52.284;20.890;2023-04-10T03:14:33;8.30;;;6.90;;
41141;SDS011;63666;52.284;20.890;2023-04-10T03:17:07;8.60;;;7.00;;
41141;SDS011;63666;52.284;20.890;2023-04-10T03:19:41;8.10;;;6.70;;
41141;SDS011;63666;52.284;20.890;2023-04-10T03:22:19;8.40;;;7.10;;
41141;SDS011;63666;52.284;20.890;2023-04-10T03:24:54;8.90;;;7.20;;
41141;SDS011;63666;52.284;20.890;2023-04-10T03:27:30;8.90;;;6.80;;
41141;SDS011;63666;52.284;20.890;2023-04-10T03:30:06;9.10;;;7.30;;
41141;SDS011;63666;52.284;20.890;2023-04-10T03:32:42;9.20;;;7.40;;
41141;SDS011;63666;52.284;20.890;2023-04-10T03:35:18;8.40;;;6.80;;
41141;SDS011;63666;52.284;20.890;2023-04-10T03:37:54;8.50;;;7.30;;
41141;SDS011;63666;52.284;20.890;2023-04-10T03:40:29;9.50;;;7.50;;
41141;SDS011;63666;52.284;20.890;2023-04-10T03:43:07;8.80;;;7.00;;
41141;SDS011;63666;52.284;20.890;2023-04-10T03:45:42;9.30;;;7.50;;
41141;SDS011;63666;52.284;20.890;2023-04-10T03:48:20;10.60;;;7.40;;
41141;SDS011;63666;52.284;20.890;2023-04-10T03:50:59;9.20;;;7.50;;
41141;SDS011;63666;52.284;20.890;2023-04-10T03:53:36;10.50;;;7.50;;
41141;SDS011;63666;52.284;20.890;2023-04-10T03:56:13;8.40;;;7.00;;
41141;SDS011;63666;52.284;20.890;2023-04-10T03:58:47;9.70;;;7.60;;
41141;SDS011;63666;52.284;20.890;2023-04-10T04:01:24;8.80;;;7.30;;
41141;SDS011;63666;52.284;20.890;2023-04-10T04:03:58;9.60;;;7.60;;
41141;SDS011;63666;52.284;20.890;2023-04-10T04:06:32;9.40;;;7.20;;
41141;SDS011;63666;52.284;20.890;2023-04-10T04:09:08;9.20;;;7.20;;
41141;SDS011;63666;52.284;20.890;2023-04-10T04:11:45;9.90;;;8.00;;
41141;SDS011;63666;52.284;20.890;2023-04-10T04:14:19;9.40;;;7.70;;
41141;SDS011;63666;52.284;20.890;2023-04-10T04:16:57;9.60;;;7.50;;
41141;SDS011;63666;52.284;20.890;2023-04-10T04:19:33;9.60;;;7.70;;
41141;SDS011;63666;52.284;20.890;2023-04-10T04:22:07;9.30;;;7.50;;
41141;SDS011;63666;52.284;20.890;2023-04-10T04:24:43;9.70;;;7.60;;
41141;SDS011;63666;52.284;20.890;2023-04-10T04:27:19;9.10;;;7.40;;
41141;SDS011;63666;52.284;20.890;2023-04-10T04:29:54;9.10;;;7.80;;
41141;SDS011;63666;52.284;20.890;2023-04-10T04:32:32;9.20;;;7.60;;
41141;SDS011;63666;52.284;20.890;2023-04-10T04:35:08;9.50;;;7.70;;
41141;SDS011;63666;52.284;20.890;2023-04-10T04:37:42;9.80;;;7.80;;
41141;SDS011;63666;52.284;20.890;2023-04-10T04:40:16;9.60;;;7.50;;
41141;SDS011;63666;52.284;20.890;2023-04-10T04:42:51;9.20;;;7.70;;
41141;SDS011;63666;52.284;20.890;2023-04-10T04:45:24;9.30;;;7.70;;
41141;SDS011;63666;52.284;20.890;2023-04-10T04:47:59;9.10;;;7.70;;
41141;SDS011;63666;52.284;20.890;2023-04-10T04:50:33;9.40;;;7.70;;
41141;SDS011;63666;52.284;20.890;2023-04-10T04:53:09;8.70;;;7.40;;
41141;SDS011;63666;52.284;20.890;2023-04-10T04:55:48;9.30;;;7.70;;
41141;SDS011;63666;52.284;20.890;2023-04-10T04:58:28;8.80;;;7.60;;
41141;SDS011;63666;52.284;20.890;2023-04-10T05:01:06;9.20;;;7.90;;
41141;SDS011;63666;52.284;20.890;2023-04-10T05:03:41;9.60;;;7.40;;
41141;SDS011;63666;52.284;20.890;2023-04-10T05:06:16;9.00;;;7.20;;
41141;SDS011;63666;52.284;20.890;2023-04-10T05:08:54;8.90;;;7.90;;
41141;SDS011;63666;52.284;20.890;2023-04-10T05:11:30;9.70;;;7.80;;
41141;SDS011;63666;52.284;20.890;2023-04-10T05:14:07;8.70;;;7.70;;
41141;SDS011;63666;52.284;20.890;2023-04-10T05:16:49;8.60;;;7.50;;
41141;SDS011;63666;52.284;20.890;2023-04-10T05:19:25;8.70;;;7.70;;
41141;SDS011;63666;52.284;20.890;2023-04-10T05:22:04;9.20;;;7.60;;
41141;SDS011;63666;52.284;20.890;2023-04-10T05:24:39;8.80;;;7.40;;
41141;SDS011;63666;52.284;20.890;2023-04-10T05:27:14;9.30;;;7.40;;
41141;SDS011;63666;52.284;20.890;2023-04-10T05:29:50;8.60;;;7.30;;
41141;SDS011;63666;52.284;20.890;2023-04-10T05:32:27;8.90;;;7.20;;
41141;SDS011;63666;52.284;20.890;2023-04-10T05:35:03;9.00;;;7.40;;
41141;SDS011;63666;52.284;20.890;2023-04-10T05:37:39;8.50;;;6.60;;
41141;SDS011;63666;52.284;20.890;2023-04-10T05:40:16;9.40;;;7.50;;
41141;SDS011;63666;52.284;20.890;2023-04-10T05:42:54;8.90;;;7.30;;
41141;SDS011;63666;52.284;20.890;2023-04-10T05:45:30;8.60;;;7.10;;
41141;SDS011;63666;52.284;20.890;2023-04-10T05:48:05;8.60;;;7.00;;
41141;SDS011;63666;52.284;20.890;2023-04-10T05:50:39;8.60;;;7.10;;
41141;SDS011;63666;52.284;20.890;2023-04-10T05:53:19;8.20;;;7.00;;
41141;SDS011;63666;52.284;20.890;2023-04-10T05:55:58;8.20;;;6.80;;
41141;SDS011;63666;52.284;20.890;2023-04-10T05:58:35;8.20;;;6.90;;
41141;SDS011;63666;52.284;20.890;2023-04-10T06:01:11;8.20;;;6.80;;
41141;SDS011;63666;52.284;20.890;2023-04-10T06:03:48;8.00;;;6.80;;
41141;SDS011;63666;52.284;20.890;2023-04-10T06:06:22;8.30;;;6.80;;
41141;SDS011;63666;52.284;20.890;2023-04-10T06:08:56;8.50;;;7.00;;
41141;SDS011;63666;52.284;20.890;2023-04-10T06:11:33;8.50;;;6.70;;
41141;SDS011;63666;52.284;20.890;2023-04-10T06:14:07;8.80;;;7.00;;
41141;SDS011;63666;52.284;20.890;2023-04-10T06:16:45;8.20;;;6.90;;
41141;SDS011;63666;52.284;20.890;2023-04-10T06:19:19;9.10;;;7.00;;
41141;SDS011;63666;52.284;20.890;2023-04-10T06:21:55;8.40;;;6.90;;
41141;SDS011;63666;52.284;20.890;2023-04-10T06:24:31;7.90;;;6.60;;
41141;SDS011;63666;52.284;20.890;2023-04-10T06:27:06;8.00;;;6.60;;
41141;SDS011;63666;52.284;20.890;2023-04-10T06:29:44;7.80;;;6.60;;
41141;SDS011;63666;52.284;20.890;2023-04-10T06:32:23;9.30;;;6.90;;
41141;SDS011;63666;52.284;20.890;2023-04-10T06:34:59;8.10;;;6.90;;
41141;SDS011;63666;52.284;20.890;2023-04-10T06:37:35;8.00;;;6.30;;
41141;SDS011;63666;52.284;20.890;2023-04-10T06:40:12;7.80;;;6.20;;
41141;SDS011;63666;52.284;20.890;2023-04-10T06:42:47;8.50;;;6.50;;
41141;SDS011;63666;52.284;20.890;2023-04-10T06:45:23;7.80;;;6.30;;
41141;SDS011;63666;52.284;20.890;2023-04-10T06:48:00;8.00;;;6.40;;
41141;SDS011;63666;52.284;20.890;2023-04-10T06:50:38;8.00;;;6.30;;
41141;SDS011;63666;52.284;20.890;2023-04-10T06:53:13;7.70;;;5.90;;
41141;SDS011;63666;52.284;20.890;2023-04-10T06:55:51;7.90;;;6.50;;
41141;SDS011;63666;52.284;20.890;2023-04-10T06:58:28;8.00;;;6.30;;
41141;SDS011;63666;52.284;20.890;2023-04-10T07:01:06;7.90;;;6.30;;
41141;SDS011;63666;52.284;20.890;2023-04-10T07:03:40;7.50;;;6.20;;
41141;SDS011;63666;52.284;20.890;2023-04-10T07:06:15;7.60;;;5.90;;
41141;SDS011;63666;52.284;20.890;2023-04-10T07:08:50;7.60;;;6.10;;
41141;SDS011;63666;52.284;20.890;2023-04-10T07:11:28;7.80;;;5.80;;
41141;SDS011;63666;52.284;20.890;2023-04-10T07:14:08;7.60;;;6.20;;
41141;SDS011;63666;52.284;20.890;2023-04-10T07:16:43;8.10;;;6.20;;
41141;SDS011;63666;52.284;20.890;2023-04-10T07:19:20;8.70;;;6.30;;
41141;SDS011;63666;52.284;20.890;2023-04-10T07:21:57;7.70;;;6.00;;
41141;SDS011;63666;52.284;20.890;2023-04-10T07:24:37;7.80;;;6.20;;
41141;SDS011;63666;52.284;20.890;2023-04-10T07:27:11;7.50;;;5.80;;
41141;SDS011;63666;52.284;20.890;2023-04-10T07:29:46;7.60;;;6.10;;
41141;SDS011;63666;52.284;20.890;2023-04-10T07:32:21;8.00;;;6.10;;
41141;SDS011;63666;52.284;20.890;2023-04-10T07:35:06;7.30;;;5.90;;
41141;SDS011;63666;52.284;20.890;2023-04-10T07:37:46;7.50;;;5.80;;
41141;SDS011;63666;52.284;20.890;2023-04-10T07:40:24;7.10;;;6.00;;
41141;SDS011;63666;52.284;20.890;2023-04-10T07:43:00;7.10;;;5.60;;
41141;SDS011;63666;52.284;20.890;2023-04-10T07:45:36;8.10;;;5.60;;
41141;SDS011;63666;52.284;20.890;2023-04-10T07:48:12;7.30;;;5.90;;
41141;SDS011;63666;52.284;20.890;2023-04-10T07:50:50;7.20;;;5.90;;
41141;SDS011;63666;52.284;20.890;2023-04-10T07:53:25;7.20;;;5.90;;
41141;SDS011;63666;52.284;20.890;2023-04-10T07:56:05;7.70;;;6.00;;
41141;SDS011;63666;52.284;20.890;2023-04-10T08:01:23;7.20;;;5.60;;
41141;SDS011;63666;52.284;20.890;2023-04-10T08:04:00;7.50;;;6.00;;
41141;SDS011;63666;52.284;20.890;2023-04-10T08:06:38;7.40;;;5.80;;
41141;SDS011;63666;52.284;20.890;2023-04-10T08:09:13;7.30;;;5.80;;
41141;SDS011;63666;52.284;20.890;2023-04-10T08:11:51;6.90;;;5.30;;
41141;SDS011;63666;52.284;20.890;2023-04-10T08:14:26;7.60;;;5.50;;
41141;SDS011;63666;52.284;20.890;2023-04-10T08:17:01;6.90;;;5.30;;
41141;SDS011;63666;52.284;20.890;2023-04-10T08:19:38;6.70;;;5.60;;
41141;SDS011;63666;52.284;20.890;2023-04-10T08:22:15;6.70;;;5.30;;
41141;SDS011;63666;52.284;20.890;2023-04-10T08:24:49;6.70;;;5.40;;
41141;SDS011;63666;52.284;20.890;2023-04-10T08:27:26;7.00;;;5.30;;
41141;SDS011;63666;52.284;20.890;2023-04-10T08:30:02;7.10;;;5.60;;
41141;SDS011;63666;52.284;20.890;2023-04-10T08:32:40;7.00;;;5.50;;
41141;SDS011;63666;52.284;20.890;2023-04-10T08:35:15;7.00;;;5.60;;
41141;SDS011;63666;52.284;20.890;2023-04-10T08:37:53;7.40;;;5.50;;
41141;SDS011;63666;52.284;20.890;2023-04-10T08:40:45;6.90;;;5.60;;
41141;SDS011;63666;52.284;20.890;2023-04-10T08:43:21;6.90;;;5.30;;
41141;SDS011;63666;52.284;20.890;2023-04-10T08:45:58;6.90;;;5.20;;
41141;SDS011;63666;52.284;20.890;2023-04-10T08:48:37;7.30;;;5.20;;
41141;SDS011;63666;52.284;20.890;2023-04-10T08:51:18;6.40;;;5.10;;
41141;SDS011;63666;52.284;20.890;2023-04-10T08:54:00;6.10;;;5.20;;
41141;SDS011;63666;52.284;20.890;2023-04-10T08:56:43;6.80;;;5.50;;
41141;SDS011;63666;52.284;20.890;2023-04-10T08:59:21;6.70;;;4.90;;
41141;SDS011;63666;52.284;20.890;2023-04-10T09:01:54;6.50;;;5.00;;
41141;SDS011;63666;52.284;20.890;2023-04-10T09:04:29;6.60;;;5.30;;
41141;SDS011;63666;52.284;20.890;2023-04-10T09:07:06;6.70;;;4.90;;
41141;SDS011;63666;52.284;20.890;2023-04-10T09:09:41;7.00;;;5.40;;
41141;SDS011;63666;52.284;20.890;2023-04-10T09:12:18;6.50;;;4.90;;
41141;SDS011;63666;52.284;20.890;2023-04-10T09:14:56;6.80;;;5.00;;
41141;SDS011;63666;52.284;20.890;2023-04-10T09:17:36;6.40;;;5.00;;
41141;SDS011;63666;52.284;20.890;2023-04-10T09:20:21;6.60;;;5.20;;
41141;SDS011;63666;52.284;20.890;2023-04-10T09:22:57;6.40;;;5.00;;
41141;SDS011;63666;52.284;20.890;2023-04-10T09:25:36;5.80;;;4.50;;
41141;SDS011;63666;52.284;20.890;2023-04-10T09:28:11;6.40;;;5.10;;
41141;SDS011;63666;52.284;20.890;2023-04-10T09:30:50;6.30;;;5.10;;
41141;SDS011;63666;52.284;20.890;2023-04-10T09:33:27;6.70;;;5.10;;
41141;SDS011;63666;52.284;20.890;2023-04-10T09:36:05;6.20;;;4.70;;
41141;SDS011;63666;52.284;20.890;2023-04-10T09:38:51;5.90;;;4.70;;
41141;SDS011;63666;52.284;20.890;2023-04-10T09:41:29;6.20;;;5.00;;
41141;SDS011;63666;52.284;20.890;2023-04-10T09:44:09;6.10;;;4.80;;
41141;SDS011;63666;52.284;20.890;2023-04-10T09:46:46;6.00;;;4.80;;
41141;SDS011;63666;52.284;20.890;2023-04-10T09:49:22;6.30;;;4.90;;
41141;SDS011;63666;52.284;20.890;2023-04-10T09:51:56;6.10;;;4.80;;
41141;SDS011;63666;52.284;20.890;2023-04-10T09:54:36;6.30;;;5.10;;
41141;SDS011;63666;52.284;20.890;2023-04-10T09:57:11;6.70;;;4.90;;
41141;SDS011;63666;52.284;20.890;2023-04-10T09:59:49;6.20;;;4.90;;
41141;SDS011;63666;52.284;20.890;2023-04-10T10:02:27;5.90;;;4.80;;
41141;SDS011;63666;52.284;20.890;2023-04-10T10:05:04;6.10;;;4.60;;
41141;SDS011;63666;52.284;20.890;2023-04-10T10:07:41;5.60;;;4.30;;
41141;SDS011;63666;52.284;20.890;2023-04-10T10:10:18;6.10;;;4.60;;
41141;SDS011;63666;52.284;20.890;2023-04-10T10:12:56;6.10;;;4.60;;
41141;SDS011;63666;52.284;20.890;2023-04-10T10:15:37;5.70;;;4.70;;
41141;SDS011;63666;52.284;20.890;2023-04-10T10:18:24;6.10;;;4.50;;
41141;SDS011;63666;52.284;20.890;2023-04-10T10:21:04;6.30;;;5.00;;
41141;SDS011;63666;52.284;20.890;2023-04-10T10:23:39;6.00;;;4.70;;
41141;SDS011;63666;52.284;20.890;2023-04-10T10:26:14;5.60;;;4.40;;
41141;SDS011;63666;52.284;20.890;2023-04-10T10:28:51;5.80;;;4.60;;
41141;SDS011;63666;52.284;20.890;2023-04-10T10:31:28;6.20;;;4.70;;
41141;SDS011;63666;52.284;20.890;2023-04-10T10:34:03;5.90;;;4.40;;
41141;SDS011;63666;52.284;20.890;2023-04-10T10:36:42;5.80;;;4.30;;
41141;SDS011;63666;52.284;20.890;2023-04-10T10:39:29;6.10;;;4.50;;
41141;SDS011;63666;52.284;20.890;2023-04-10T10:42:11;6.00;;;4.20;;
41141;SDS011;63666;52.284;20.890;2023-04-10T10:44:54;6.30;;;4.80;;
41141;SDS011;63666;52.284;20.890;2023-04-10T10:47:40;5.80;;;4.50;;
41141;SDS011;63666;52.284;20.890;2023-04-10T10:50:20;5.80;;;4.20;;
41141;SDS011;63666;52.284;20.890;2023-04-10T10:52:57;6.10;;;4.60;;
41141;SDS011;63666;52.284;20.890;2023-04-10T10:55:34;5.70;;;4.40;;
41141;SDS011;63666;52.284;20.890;2023-04-10T10:58:10;5.90;;;4.30;;
41141;SDS011;63666;52.284;20.890;2023-04-10T11:03:54;5.50;;;4.10;;
41141;SDS011;63666;52.284;20.890;2023-04-10T11:06:50;5.50;;;4.20;;
41141;SDS011;63666;52.284;20.890;2023-04-10T11:09:48;5.50;;;4.10;;
41141;SDS011;63666;52.284;20.890;2023-04-10T11:12:25;5.70;;;4.20;;
41141;SDS011;63666;52.284;20.890;2023-04-10T11:15:01;5.30;;;3.90;;
41141;SDS011;63666;52.284;20.890;2023-04-10T11:17:50;5.60;;;4.30;;
41141;SDS011;63666;52.284;20.890;2023-04-10T11:20:26;5.80;;;4.00;;
41141;SDS011;63666;52.284;20.890;2023-04-10T11:23:12;5.50;;;3.90;;
41141;SDS011;63666;52.284;20.890;2023-04-10T11:25:52;5.70;;;4.40;;
41141;SDS011;63666;52.284;20.890;2023-04-10T11:28:36;5.70;;;4.10;;
41141;SDS011;63666;52.284;20.890;2023-04-10T11:31:22;5.50;;;4.00;;
41141;SDS011;63666;52.284;20.890;2023-04-10T11:34:03;5.70;;;4.00;;
41141;SDS011;63666;52.284;20.890;2023-04-10T11:36:43;5.30;;;4.00;;
41141;SDS011;63666;52.284;20.890;2023-04-10T11:39:19;6.10;;;4.00;;
41141;SDS011;63666;52.284;20.890;2023-04-10T11:41:57;5.20;;;4.10;;
41141;SDS011;63666;52.284;20.890;2023-04-10T11:44:35;5.40;;;3.90;;
41141;SDS011;63666;52.284;20.890;2023-04-10T11:47:16;5.40;;;4.00;;
41141;SDS011;63666;52.284;20.890;2023-04-10T11:49:55;5.60;;;3.80;;
41141;SDS011;63666;52.284;20.890;2023-04-10T11:52:33;5.40;;;3.80;;
41141;SDS011;63666;52.284;20.890;2023-04-10T11:55:11;5.40;;;3.80;;
41141;SDS011;63666;52.284;20.890;2023-04-10T11:57:47;5.40;;;3.90;;
41141;SDS011;63666;52.284;20.890;2023-04-10T12:00:24;5.10;;;3.70;;
41141;SDS011;63666;52.284;20.890;2023-04-10T12:03:00;5.60;;;4.00;;
41141;SDS011;63666;52.284;20.890;2023-04-10T12:05:48;5.00;;;3.50;;
41141;SDS011;63666;52.284;20.890;2023-04-10T12:08:30;5.50;;;4.00;;
41141;SDS011;63666;52.284;20.890;2023-04-10T12:11:06;5.30;;;3.90;;
41141;SDS011;63666;52.284;20.890;2023-04-10T12:13:41;4.90;;;3.50;;
41141;SDS011;63666;52.284;20.890;2023-04-10T12:16:19;5.20;;;3.80;;
41141;SDS011;63666;52.284;20.890;2023-04-10T12:18:56;5.10;;;3.70;;
41141;SDS011;63666;52.284;20.890;2023-04-10T12:21:36;5.10;;;3.60;;
41141;SDS011;63666;52.284;20.890;2023-04-10T12:24:12;5.10;;;3.80;;
41141;SDS011;63666;52.284;20.890;2023-04-10T12:26:49;5.10;;;3.50;;
41141;SDS011;63666;52.284;20.890;2023-04-10T12:29:26;5.20;;;3.70;;
41141;SDS011;63666;52.284;20.890;2023-04-10T12:32:08;4.90;;;3.50;;
41141;SDS011;63666;52.284;20.890;2023-04-10T12:34:50;5.20;;;3.80;;
41141;SDS011;63666;52.284;20.890;2023-04-10T12:37:50;5.10;;;3.50;;
41141;SDS011;63666;52.284;20.890;2023-04-10T12:40:25;5.00;;;3.50;;
41141;SDS011;63666;52.284;20.890;2023-04-10T12:43:01;5.40;;;3.50;;
41141;SDS011;63666;52.284;20.890;2023-04-10T12:45:45;4.80;;;3.40;;
41141;SDS011;63666;52.284;20.890;2023-04-10T12:48:26;4.90;;;3.30;;
41141;SDS011;63666;52.284;20.890;2023-04-10T12:51:04;4.90;;;3.50;;
41141;SDS011;63666;52.284;20.890;2023-04-10T12:53:44;4.90;;;3.70;;
41141;SDS011;63666;52.284;20.890;2023-04-10T12:56:21;4.80;;;3.40;;
41141;SDS011;63666;52.284;20.890;2023-04-10T12:59:09;4.70;;;3.60;;
41141;SDS011;63666;52.284;20.890;2023-04-10T13:01:45;5.00;;;3.40;;
41141;SDS011;63666;52.284;20.890;2023-04-10T13:04:21;5.10;;;3.70;;
41141;SDS011;63666;52.284;20.890;2023-04-10T13:06:59;4.90;;;3.40;;
41141;SDS011;63666;52.284;20.890;2023-04-10T13:09:37;4.50;;;3.20;;
41141;SDS011;63666;52.284;20.890;2023-04-10T13:12:13;4.40;;;3.10;;
41141;SDS011;63666;52.284;20.890;2023-04-10T13:14:49;4.60;;;3.10;;
41141;SDS011;63666;52.284;20.890;2023-04-10T13:17:27;4.80;;;3.40;;
41141;SDS011;63666;52.284;20.890;2023-04-10T13:20:09;4.80;;;3.30;;
41141;SDS011;63666;52.284;20.890;2023-04-10T13:22:45;4.90;;;3.20;;
41141;SDS011;63666;52.284;20.890;2023-04-10T13:25:23;4.70;;;3.20;;
41141;SDS011;63666;52.284;20.890;2023-04-10T13:27:58;4.60;;;3.10;;
41141;SDS011;63666;52.284;20.890;2023-04-10T13:30:34;4.70;;;3.10;;
41141;SDS011;63666;52.284;20.890;2023-04-10T13:33:10;4.60;;;3.10;;
41141;SDS011;63666;52.284;20.890;2023-04-10T13:35:47;4.60;;;3.00;;
41141;SDS011;63666;52.284;20.890;2023-04-10T13:38:29;4.30;;;3.00;;
41141;SDS011;63666;52.284;20.890;2023-04-10T13:41:04;5.00;;;3.10;;
41141;SDS011;63666;52.284;20.890;2023-04-10T13:43:44;4.50;;;2.90;;
41141;SDS011;63666;52.284;20.890;2023-04-10T13:46:20;4.90;;;3.10;;
41141;SDS011;63666;52.284;20.890;2023-04-10T13:48:58;4.90;;;3.10;;
41141;SDS011;63666;52.284;20.890;2023-04-10T13:51:32;4.60;;;3.20;;
41141;SDS011;63666;52.284;20.890;2023-04-10T13:54:12;4.30;;;3.00;;
41141;SDS011;63666;52.284;20.890;2023-04-10T13:56:48;4.40;;;3.00;;
41141;SDS011;63666;52.284;20.890;2023-04-10T13:59:29;5.00;;;3.10;;
41141;SDS011;63666;52.284;20.890;2023-04-10T14:02:03;4.20;;;2.90;;
41141;SDS011;63666;52.284;20.890;2023-04-10T14:04:39;4.40;;;2.80;;
41141;SDS011;63666;52.284;20.890;2023-04-10T14:07:17;4.50;;;3.10;;
41141;SDS011;63666;52.284;20.890;2023-04-10T14:09:52;4.60;;;2.90;;
41141;SDS011;63666;52.284;20.890;2023-04-10T14:12:29;4.60;;;2.90;;
41141;SDS011;63666;52.284;20.890;2023-04-10T14:15:05;4.70;;;3.00;;
41141;SDS011;63666;52.284;20.890;2023-04-10T14:17:42;4.30;;;2.80;;
41141;SDS011;63666;52.284;20.890;2023-04-10T14:20:18;4.40;;;2.90;;
41141;SDS011;63666;52.284;20.890;2023-04-10T14:22:57;4.50;;;2.90;;
41141;SDS011;63666;52.284;20.890;2023-04-10T14:25:31;4.30;;;2.70;;
41141;SDS011;63666;52.284;20.890;2023-04-10T14:28:12;4.60;;;3.00;;
41141;SDS011;63666;52.284;20.890;2023-04-10T14:30:49;4.20;;;3.10;;
41141;SDS011;63666;52.284;20.890;2023-04-10T14:33:26;4.20;;;2.80;;
41141;SDS011;63666;52.284;20.890;2023-04-10T14:36:01;4.30;;;2.90;;
41141;SDS011;63666;52.284;20.890;2023-04-10T14:38:36;4.40;;;3.00;;
41141;SDS011;63666;52.284;20.890;2023-04-10T14:41:12;4.30;;;2.90;;
41141;SDS011;63666;52.284;20.890;2023-04-10T14:43:49;4.20;;;2.80;;
41141;SDS011;63666;52.284;20.890;2023-04-10T14:46:25;4.40;;;2.80;;
41141;SDS011;63666;52.284;20.890;2023-04-10T14:49:02;4.90;;;2.70;;
41141;SDS011;63666;52.284;20.890;2023-04-10T14:51:38;4.20;;;2.70;;
41141;SDS011;63666;52.284;20.890;2023-04-10T14:54:16;4.60;;;2.90;;
41141;SDS011;63666;52.284;20.890;2023-04-10T14:56:56;4.40;;;3.00;;
41141;SDS011;63666;52.284;20.890;2023-04-10T14:59:32;4.30;;;2.80;;
41141;SDS011;63666;52.284;20.890;2023-04-10T15:02:08;4.40;;;2.60;;
41141;SDS011;63666;52.284;20.890;2023-04-10T15:04:46;4.60;;;3.10;;
41141;SDS011;63666;52.284;20.890;2023-04-10T15:07:20;4.10;;;2.60;;
41141;SDS011;63666;52.284;20.890;2023-04-10T15:10:00;4.30;;;2.80;;
41141;SDS011;63666;52.284;20.890;2023-04-10T15:12:37;4.50;;;2.80;;
41141;SDS011;63666;52.284;20.890;2023-04-10T15:15:14;4.30;;;2.80;;
41141;SDS011;63666;52.284;20.890;2023-04-10T15:17:50;4.40;;;2.70;;
41141;SDS011;63666;52.284;20.890;2023-04-10T15:20:28;4.30;;;2.80;;
41141;SDS011;63666;52.284;20.890;2023-04-10T15:23:08;4.40;;;2.70;;
41141;SDS011;63666;52.284;20.890;2023-04-10T15:25:45;4.20;;;2.70;;
41141;SDS011;63666;52.284;20.890;2023-04-10T15:28:22;4.40;;;2.70;;
41141;SDS011;63666;52.284;20.890;2023-04-10T15:30:59;4.80;;;2.90;;
41141;SDS011;63666;52.284;20.890;2023-04-10T15:33:38;4.60;;;2.80;;
41141;SDS011;63666;52.284;20.890;2023-04-10T15:36:15;4.30;;;2.90;;
41141;SDS011;63666;52.284;20.890;2023-04-10T15:38:52;4.60;;;2.70;;
41141;SDS011;63666;52.284;20.890;2023-04-10T15:41:29;3.90;;;2.50;;